Time;durP1;ratioP1;P1;durP2;ratioP2;P2;SDS_P1;SDS_P2;PMS_P1;PMS_P2;Temp;Humidity;BMP_temperature;BMP_pressure;BME280_temperature;BME280_humidity;BME280_pressure;Samples;Min_cycle;Max_cycle;Signal;HPM_P1;HPM_P2
2023/06/24 00:01:01;;;;;;;5.10;3.70;;;;;;;;;;5073035;28;20226;-57
2023/06/24 00:03:27;;;;;;;4.20;3.80;;;;;;;;;;5072744;28;20203;-57
2023/06/24 00:05:56;;;;;;;4.93;3.80;;;;;;;;;;5068889;28;20219;-56
2023/06/24 00:08:23;;;;;;;4.87;4.10;;;;;;;;;;5073308;28;20195;-56
2023/06/24 00:10:49;;;;;;;5.53;4.03;;;;;;;;;;5072627;28;20291;-56
2023/06/24 00:13:15;;;;;;;3.87;3.57;;;;;;;;;;5073033;28;20257;-57
2023/06/24 00:15:42;;;;;;;4.67;4.17;;;;;;;;;;5070685;28;20226;-57
2023/06/24 00:18:10;;;;;;;4.53;4.13;;;;;;;;;;5071103;28;20223;-57
2023/06/24 00:20:36;;;;;;;5.27;4.13;;;;;;;;;;5073113;28;20619;-56
2023/06/24 00:23:02;;;;;;;7.07;6.00;;;;;;;;;;5073255;28;20199;-55
2023/06/24 00:25:28;;;;;;;8.37;7.57;;;;;;;;;;5072808;28;20349;-56
2023/06/24 00:27:54;;;;;;;6.50;5.87;;;;;;;;;;5071205;28;20680;-56
2023/06/24 00:30:20;;;;;;;5.70;5.10;;;;;;;;;;5071229;28;20202;-55
2023/06/24 00:32:46;;;;;;;5.17;4.43;;;;;;;;;;5072794;28;20264;-56
2023/06/24 00:35:14;;;;;;;4.87;4.43;;;;;;;;;;5072770;28;20224;-56
2023/06/24 00:37:41;;;;;;;5.10;4.60;;;;;;;;;;5072674;28;20233;-56
2023/06/24 00:40:15;;;;;;;5.17;4.67;;;;;;;;;;5072582;28;20200;-56
2023/06/24 00:42:41;;;;;;;4.20;3.90;;;;;;;;;;5071506;28;20631;-56
2023/06/24 00:45:09;;;;;;;8.67;4.80;;;;;;;;;;5072729;28;20724;-56
2023/06/24 00:47:35;;;;;;;5.87;4.90;;;;;;;;;;5072377;28;20226;-56
2023/06/24 00:50:01;;;;;;;5.60;4.83;;;;;;;;;;5072644;28;20203;-56
2023/06/24 00:52:29;;;;;;;5.47;4.87;;;;;;;;;;5072621;28;20210;-56
2023/06/24 00:54:55;;;;;;;6.30;5.33;;;;;;;;;;5072435;28;20198;-55
2023/06/24 00:57:23;;;;;;;6.70;5.53;;;;;;;;;;5072439;28;20605;-55
2023/06/24 00:59:53;;;;;;;7.70;6.03;;;;;;;;;;5072517;28;20233;-56
2023/06/24 01:02:19;;;;;;;6.73;6.13;;;;;;;;;;5072256;28;20219;-56
2023/06/24 01:04:45;;;;;;;7.03;6.10;;;;;;;;;;5072205;28;20259;-56
2023/06/24 01:07:11;;;;;;;8.10;6.63;;;;;;;;;;5072361;28;20228;-56
2023/06/24 01:09:39;;;;;;;7.70;5.83;;;;;;;;;;5072002;28;20677;-54
2023/06/24 01:12:06;;;;;;;6.97;6.20;;;;;;;;;;5072298;28;20612;-54
2023/06/24 01:14:32;;;;;;;7.83;6.73;;;;;;;;;;5072086;28;20200;-54
2023/06/24 01:17:01;;;;;;;7.90;5.67;;;;;;;;;;5071937;28;20231;-55
2023/06/24 01:19:46;;;;;;;6.53;5.80;;;;;;;;;;5072036;28;20723;-54
2023/06/24 01:22:20;;;;;;;7.47;6.20;;;;;;;;;;5071940;28;20544;-54
2023/06/24 01:24:59;;;;;;;8.57;5.80;;;;;;;;;;5072034;28;20610;-54
2023/06/24 01:27:33;;;;;;;6.77;6.07;;;;;;;;;;5071627;28;20191;-54
2023/06/24 01:30:11;;;;;;;5.93;5.40;;;;;;;;;;5072057;28;20207;-54
2023/06/24 01:32:41;;;;;;;6.30;5.63;;;;;;;;;;5071893;28;20204;-54
2023/06/24 01:35:09;;;;;;;7.30;6.37;;;;;;;;;;5071985;28;20249;-54
2023/06/24 01:37:38;;;;;;;8.10;6.23;;;;;;;;;;5071658;28;20231;-54
2023/06/24 01:40:09;;;;;;;8.00;7.00;;;;;;;;;;5071923;28;20214;-54
2023/06/24 01:42:36;;;;;;;8.50;7.10;;;;;;;;;;5071715;28;20195;-54
2023/06/24 01:45:03;;;;;;;7.47;6.67;;;;;;;;;;5071755;28;20198;-54
2023/06/24 01:47:30;;;;;;;7.47;6.60;;;;;;;;;;5071730;28;20191;-53
2023/06/24 01:49:59;;;;;;;8.17;6.80;;;;;;;;;;5071619;28;20203;-54
2023/06/24 01:52:27;;;;;;;8.73;7.07;;;;;;;;;;5071572;28;20286;-54
2023/06/24 01:54:54;;;;;;;9.90;6.90;;;;;;;;;;5071591;28;20187;-54
2023/06/24 01:57:21;;;;;;;9.33;7.07;;;;;;;;;;5071425;28;20624;-53
2023/06/24 01:59:49;;;;;;;7.23;6.53;;;;;;;;;;5071514;28;20253;-53
2023/06/24 02:02:15;;;;;;;7.00;6.30;;;;;;;;;;5071578;28;20214;-56
2023/06/24 02:04:41;;;;;;;7.20;6.60;;;;;;;;;;5071254;28;20728;-56
2023/06/24 02:07:09;;;;;;;8.50;7.00;;;;;;;;;;5070821;28;20206;-54
2023/06/24 02:09:35;;;;;;;7.40;6.60;;;;;;;;;;5071125;28;20248;-54
2023/06/24 02:12:02;;;;;;;7.30;6.17;;;;;;;;;;5071348;28;20195;-54
2023/06/24 02:14:29;;;;;;;6.97;6.37;;;;;;;;;;5071398;28;20196;-54
2023/06/24 02:16:56;;;;;;;10.03;6.87;;;;;;;;;;5071269;28;20284;-55
2023/06/24 02:19:22;;;;;;;8.50;7.50;;;;;;;;;;5071329;28;20187;-54
2023/06/24 02:21:51;;;;;;;8.13;6.83;;;;;;;;;;5071300;28;20208;-55
2023/06/24 02:24:19;;;;;;;8.40;7.50;;;;;;;;;;5071365;28;20203;-54
2023/06/24 02:26:45;;;;;;;8.23;7.53;;;;;;;;;;5071137;28;20669;-54
2023/06/24 02:29:11;;;;;;;7.43;6.73;;;;;;;;;;5071319;28;20202;-54
2023/06/24 02:31:37;;;;;;;7.67;6.97;;;;;;;;;;5071112;28;20244;-54
2023/06/24 02:34:03;;;;;;;7.83;7.07;;;;;;;;;;5071172;28;20184;-54
2023/06/24 02:36:29;;;;;;;8.37;6.60;;;;;;;;;;5071147;28;20542;-55
2023/06/24 02:38:55;;;;;;;7.93;7.00;;;;;;;;;;5073575;28;20238;-54
2023/06/24 02:41:23;;;;;;;8.00;7.30;;;;;;;;;;5075309;28;20287;-54
2023/06/24 02:43:48;;;;;;;10.83;6.83;;;;;;;;;;5075164;28;20204;-54
2023/06/24 02:46:15;;;;;;;7.17;6.47;;;;;;;;;;5075186;28;20199;-54
2023/06/24 02:48:42;;;;;;;8.83;7.93;;;;;;;;;;5074898;28;20704;-54
2023/06/24 02:51:09;;;;;;;7.87;7.17;;;;;;;;;;5075139;28;20466;-54
2023/06/24 02:53:36;;;;;;;6.60;6.00;;;;;;;;;;5075028;28;20204;-55
2023/06/24 02:56:04;;;;;;;8.27;6.30;;;;;;;;;;5074921;28;20286;-54
2023/06/24 02:58:32;;;;;;;8.73;7.50;;;;;;;;;;5074839;28;20306;-54
2023/06/24 03:00:59;;;;;;;8.30;7.40;;;;;;;;;;5074807;28;20187;-54
2023/06/24 03:03:26;;;;;;;8.00;7.20;;;;;;;;;;5074625;28;20224;-54
2023/06/24 03:05:53;;;;;;;7.53;6.83;;;;;;;;;;5074284;28;20215;-54
2023/06/24 03:08:19;;;;;;;8.13;6.97;;;;;;;;;;5073558;28;20283;-54
2023/06/24 03:10:45;;;;;;;9.50;8.10;;;;;;;;;;5073695;28;20245;-54
2023/06/24 03:13:11;;;;;;;8.43;7.53;;;;;;;;;;5074339;28;20662;-54
2023/06/24 03:15:39;;;;;;;8.87;7.97;;;;;;;;;;5074182;28;20202;-54
2023/06/24 03:18:05;;;;;;;8.97;8.07;;;;;;;;;;5074276;28;20231;-54
2023/06/24 03:20:38;;;;;;;8.27;7.40;;;;;;;;;;5074109;28;20310;-54
2023/06/24 03:23:04;;;;;;;8.47;7.70;;;;;;;;;;5074257;28;20665;-54
2023/06/24 03:25:30;;;;;;;8.70;7.87;;;;;;;;;;5074191;28;20245;-54
2023/06/24 03:27:56;;;;;;;9.17;8.37;;;;;;;;;;5074538;28;20184;-54
2023/06/24 03:30:22;;;;;;;8.00;7.23;;;;;;;;;;5074356;28;20666;-54
2023/06/24 03:32:49;;;;;;;8.90;7.90;;;;;;;;;;5073443;28;20294;-54
2023/06/24 03:35:15;;;;;;;8.73;7.93;;;;;;;;;;5074317;28;20199;-54
2023/06/24 03:37:41;;;;;;;9.43;7.70;;;;;;;;;;5074036;28;20223;-54
2023/06/24 03:40:08;;;;;;;8.47;7.77;;;;;;;;;;5074109;28;20245;-54
2023/06/24 03:42:34;;;;;;;12.37;9.37;;;;;;;;;;5074020;28;20606;-54
2023/06/24 03:45:00;;;;;;;9.37;8.37;;;;;;;;;;5073969;28;20257;-54
2023/06/24 03:47:26;;;;;;;10.73;9.63;;;;;;;;;;5074139;28;20191;-54
2023/06/24 03:49:54;;;;;;;9.10;8.20;;;;;;;;;;5073687;28;20677;-55
2023/06/24 03:52:20;;;;;;;10.20;8.77;;;;;;;;;;5074207;28;20203;-55
2023/06/24 03:54:46;;;;;;;9.83;8.93;;;;;;;;;;5073905;28;20197;-55
2023/06/24 03:57:12;;;;;;;9.43;8.53;;;;;;;;;;5073809;28;20228;-56
2023/06/24 03:59:38;;;;;;;10.70;9.00;;;;;;;;;;5073763;28;20283;-56
2023/06/24 04:02:08;;;;;;;9.57;8.50;;;;;;;;;;5073831;28;20302;-55
2023/06/24 04:04:33;;;;;;;9.37;8.57;;;;;;;;;;5073672;28;20269;-54
2023/06/24 04:07:01;;;;;;;11.07;9.70;;;;;;;;;;5073858;28;20191;-55
2023/06/24 04:09:27;;;;;;;10.23;8.77;;;;;;;;;;5073633;28;20203;-55
2023/06/24 04:11:53;;;;;;;9.37;8.57;;;;;;;;;;5073366;28;20206;-55
2023/06/24 04:14:19;;;;;;;10.83;9.73;;;;;;;;;;5073736;28;20416;-55
2023/06/24 04:16:45;;;;;;;11.67;10.57;;;;;;;;;;5073369;28;20215;-55
2023/06/24 04:19:11;;;;;;;13.43;10.80;;;;;;;;;;5073560;28;20665;-55
2023/06/24 04:21:37;;;;;;;10.70;9.63;;;;;;;;;;5073519;28;20195;-55
2023/06/24 04:24:05;;;;;;;10.53;9.53;;;;;;;;;;5073430;28;20203;-53
2023/06/24 04:26:31;;;;;;;9.70;8.80;;;;;;;;;;5073341;28;20239;-55
2023/06/24 04:28:57;;;;;;;11.93;10.73;;;;;;;;;;5073202;28;20187;-55
2023/06/24 04:31:23;;;;;;;11.47;10.37;;;;;;;;;;5073232;28;20221;-56
2023/06/24 04:33:49;;;;;;;14.40;11.60;;;;;;;;;;5073011;28;20200;-55
2023/06/24 04:36:16;;;;;;;12.63;11.30;;;;;;;;;;5073010;28;20234;-55
2023/06/24 04:38:42;;;;;;;14.13;11.20;;;;;;;;;;5072714;28;20644;-55
2023/06/24 04:41:09;;;;;;;12.30;11.10;;;;;;;;;;5072915;28;20203;-55
2023/06/24 04:43:35;;;;;;;14.97;10.53;;;;;;;;;;5072805;28;20207;-55
2023/06/24 04:46:01;;;;;;;16.80;10.87;;;;;;;;;;5072804;28;20195;-56
2023/06/24 04:48:27;;;;;;;12.93;10.40;;;;;;;;;;5072769;28;20290;-54
2023/06/24 04:50:54;;;;;;;12.50;10.20;;;;;;;;;;5072674;28;20203;-54
2023/06/24 04:53:20;;;;;;;12.40;11.10;;;;;;;;;;5072755;28;20211;-54
2023/06/24 04:55:46;;;;;;;12.97;10.67;;;;;;;;;;5072664;28;20199;-54
2023/06/24 04:58:14;;;;;;;10.83;9.73;;;;;;;;;;5072647;28;20223;-55
2023/06/24 05:00:40;;;;;;;14.27;10.97;;;;;;;;;;5071588;28;20246;-55
2023/06/24 05:03:06;;;;;;;14.10;11.30;;;;;;;;;;5072376;28;20534;-54
2023/06/24 05:05:32;;;;;;;11.70;10.50;;;;;;;;;;5072700;28;20223;-54
2023/06/24 05:07:58;;;;;;;11.07;9.37;;;;;;;;;;5072579;28;20214;-55
2023/06/24 05:10:24;;;;;;;11.57;10.37;;;;;;;;;;5072227;28;20198;-55
2023/06/24 05:12:50;;;;;;;11.13;10.03;;;;;;;;;;5072088;28;20677;-54
2023/06/24 05:15:17;;;;;;;14.77;11.07;;;;;;;;;;5071550;28;20299;-54
2023/06/24 05:17:43;;;;;;;13.53;11.70;;;;;;;;;;5071921;28;20218;-54
2023/06/24 05:20:09;;;;;;;13.00;10.90;;;;;;;;;;5072154;28;20199;-53
2023/06/24 05:22:35;;;;;;;13.13;11.57;;;;;;;;;;5072210;28;20833;-54
2023/06/24 05:25:01;;;;;;;13.83;11.73;;;;;;;;;;5071857;28;20753;-53
2023/06/24 05:27:27;;;;;;;12.23;11.07;;;;;;;;;;5072170;28;20286;-54
2023/06/24 05:29:53;;;;;;;15.17;12.27;;;;;;;;;;5071919;28;20294;-54
2023/06/24 05:32:21;;;;;;;12.50;10.17;;;;;;;;;;5072431;28;20670;-54
2023/06/24 05:34:47;;;;;;;11.07;9.97;;;;;;;;;;5072268;28;20226;-52
2023/06/24 05:37:14;;;;;;;11.43;10.43;;;;;;;;;;5072269;28;20204;-54
2023/06/24 05:39:39;;;;;;;14.33;10.13;;;;;;;;;;5071914;28;20253;-53
2023/06/24 05:42:06;;;;;;;11.93;10.77;;;;;;;;;;5071944;28;20590;-54
2023/06/24 05:44:32;;;;;;;12.03;10.10;;;;;;;;;;5072182;28;20203;-54
2023/06/24 05:47:00;;;;;;;12.83;11.50;;;;;;;;;;5071847;28;20246;-54
2023/06/24 05:49:28;;;;;;;10.30;9.40;;;;;;;;;;5071766;28;20192;-54
2023/06/24 05:51:54;;;;;;;10.90;9.90;;;;;;;;;;5071554;28;20211;-54
2023/06/24 05:54:20;;;;;;;11.30;10.20;;;;;;;;;;5071629;28;20199;-54
2023/06/24 05:56:46;;;;;;;12.13;10.13;;;;;;;;;;5071581;28;20204;-53
2023/06/24 05:59:12;;;;;;;10.83;9.57;;;;;;;;;;5071551;28;20277;-53
2023/06/24 06:01:38;;;;;;;10.67;9.67;;;;;;;;;;5071514;28;20852;-53
2023/06/24 06:04:04;;;;;;;10.90;9.83;;;;;;;;;;5071483;28;20257;-54
2023/06/24 06:06:31;;;;;;;13.20;10.40;;;;;;;;;;5071325;28;20235;-54
2023/06/24 06:08:57;;;;;;;10.27;9.23;;;;;;;;;;5071513;28;20196;-55
2023/06/24 06:11:23;;;;;;;12.73;10.43;;;;;;;;;;5071234;28;20749;-57
2023/06/24 06:13:49;;;;;;;11.10;9.30;;;;;;;;;;5071113;28;20227;-56
2023/06/24 06:16:15;;;;;;;11.50;9.53;;;;;;;;;;5071395;28;20195;-56
2023/06/24 06:18:41;;;;;;;12.50;9.03;;;;;;;;;;5071221;28;20600;-56
2023/06/24 06:21:07;;;;;;;11.63;8.70;;;;;;;;;;5071305;28;20253;-56
2023/06/24 06:23:34;;;;;;;11.13;9.43;;;;;;;;;;5071271;28;20205;-55
2023/06/24 06:26:01;;;;;;;10.37;9.27;;;;;;;;;;5071076;28;20246;-54
2023/06/24 06:28:27;;;;;;;11.20;8.90;;;;;;;;;;5071271;28;20197;-56
2023/06/24 06:30:53;;;;;;;10.13;7.90;;;;;;;;;;5071166;28;20622;-56
2023/06/24 06:33:19;;;;;;;8.70;7.57;;;;;;;;;;5071294;28;20222;-54
2023/06/24 06:35:44;;;;;;;8.83;7.93;;;;;;;;;;5070516;28;20208;-54
2023/06/24 06:38:10;;;;;;;8.07;7.10;;;;;;;;;;5070951;28;20224;-55
2023/06/24 06:40:38;;;;;;;10.77;7.60;;;;;;;;;;5071025;28;20209;-55
2023/06/24 06:43:04;;;;;;;10.03;7.50;;;;;;;;;;5070786;28;20866;-55
2023/06/24 06:45:30;;;;;;;7.37;6.67;;;;;;;;;;5071078;28;20234;-54
2023/06/24 06:47:56;;;;;;;9.77;7.83;;;;;;;;;;5070890;28;20223;-54
2023/06/24 06:50:22;;;;;;;7.27;6.53;;;;;;;;;;5071182;28;20644;-55
2023/06/24 06:52:48;;;;;;;8.10;6.27;;;;;;;;;;5071036;28;20197;-55
2023/06/24 06:55:14;;;;;;;8.17;6.10;;;;;;;;;;5070995;28;20622;-55
2023/06/24 06:57:41;;;;;;;6.07;5.47;;;;;;;;;;5070789;28;20233;-55
2023/06/24 07:00:08;;;;;;;9.20;5.10;;;;;;;;;;5070671;28;20210;-54
2023/06/24 07:02:34;;;;;;;9.30;6.43;;;;;;;;;;5070800;28;20198;-54
2023/06/24 07:05:00;;;;;;;6.13;5.37;;;;;;;;;;5070889;28;20229;-56
2023/06/24 07:07:26;;;;;;;9.27;5.77;;;;;;;;;;5071488;28;20195;-57
2023/06/24 07:09:53;;;;;;;5.60;5.03;;;;;;;;;;5071378;28;20202;-56
2023/06/24 07:12:20;;;;;;;5.73;4.60;;;;;;;;;;5071417;28;20207;-58
2023/06/24 07:14:48;;;;;;;5.40;4.90;;;;;;;;;;5070683;28;20203;-57
2023/06/24 07:17:14;;;;;;;6.17;4.97;;;;;;;;;;5070483;28;20199;-57
2023/06/24 07:19:40;;;;;;;6.83;5.33;;;;;;;;;;5070795;28;20249;-58
2023/06/24 07:22:06;;;;;;;6.00;4.67;;;;;;;;;;5070704;28;20199;-58
2023/06/24 07:24:32;;;;;;;5.93;5.37;;;;;;;;;;5071956;28;20286;-58
2023/06/24 07:26:58;;;;;;;10.30;5.30;;;;;;;;;;5073643;28;20251;-58
2023/06/24 07:29:24;;;;;;;8.27;5.60;;;;;;;;;;5074021;28;20592;-58
2023/06/24 07:31:51;;;;;;;6.37;5.43;;;;;;;;;;5073989;28;20646;-58
2023/06/24 07:34:17;;;;;;;6.87;5.27;;;;;;;;;;5074134;28;20202;-58
2023/06/24 07:36:43;;;;;;;8.73;5.13;;;;;;;;;;5073876;28;20198;-59
2023/06/24 07:39:09;;;;;;;6.77;5.60;;;;;;;;;;5074159;28;20234;-58
2023/06/24 07:41:35;;;;;;;6.00;4.57;;;;;;;;;;5074121;28;20207;-58
2023/06/24 07:44:01;;;;;;;6.63;4.77;;;;;;;;;;5074098;28;20195;-58
2023/06/24 07:46:27;;;;;;;3.93;3.20;;;;;;;;;;5075219;28;20215;-59
2023/06/24 07:48:56;;;;;;;4.83;4.00;;;;;;;;;;5074920;28;20208;-58
2023/06/24 07:51:21;;;;;;;4.07;3.67;;;;;;;;;;5074142;28;20231;-57
2023/06/24 07:53:47;;;;;;;5.60;4.43;;;;;;;;;;5073829;28;20662;-53
2023/06/24 07:56:13;;;;;;;6.80;4.40;;;;;;;;;;5073941;28;20192;-55
2023/06/24 07:58:39;;;;;;;8.40;4.30;;;;;;;;;;5073742;28;20219;-56
2023/06/24 08:01:05;;;;;;;6.03;4.70;;;;;;;;;;5073639;28;20257;-54
2023/06/24 08:03:31;;;;;;;4.13;3.50;;;;;;;;;;5073512;28;20196;-55
2023/06/24 08:05:59;;;;;;;6.60;4.53;;;;;;;;;;5073489;28;20222;-56
2023/06/24 08:08:25;;;;;;;4.67;3.80;;;;;;;;;;5073654;28;20204;-54
2023/06/24 08:10:53;;;;;;;9.43;5.13;;;;;;;;;;5073517;28;20203;-55
2023/06/24 08:13:19;;;;;;;4.30;3.90;;;;;;;;;;5073620;28;20200;-54
2023/06/24 08:15:46;;;;;;;7.60;4.70;;;;;;;;;;5073414;28;20200;-54
2023/06/24 08:18:12;;;;;;;6.63;4.80;;;;;;;;;;5073243;28;20227;-53
2023/06/24 08:20:38;;;;;;;6.37;4.97;;;;;;;;;;5069375;28;20204;-53
2023/06/24 08:23:05;;;;;;;5.57;4.30;;;;;;;;;;5072720;28;20258;-51
2023/06/24 08:25:32;;;;;;;6.17;4.67;;;;;;;;;;5072581;28;20232;-52
2023/06/24 08:27:58;;;;;;;4.10;3.70;;;;;;;;;;5072942;28;20185;-53
2023/06/24 08:30:24;;;;;;;5.50;3.90;;;;;;;;;;5073173;28;20262;-52
2023/06/24 08:32:50;;;;;;;5.90;4.10;;;;;;;;;;5072644;28;20205;-51
2023/06/24 08:35:16;;;;;;;9.00;4.27;;;;;;;;;;5072754;28;20196;-53
2023/06/24 08:37:42;;;;;;;6.50;4.00;;;;;;;;;;5072651;28;20226;-52
2023/06/24 08:40:10;;;;;;;4.30;3.70;;;;;;;;;;5072445;28;20690;-53
2023/06/24 08:42:36;;;;;;;6.27;3.47;;;;;;;;;;5070570;28;20258;-52
2023/06/24 08:45:02;;;;;;;7.57;4.80;;;;;;;;;;5072466;28;20207;-52
2023/06/24 08:47:29;;;;;;;5.23;4.53;;;;;;;;;;5071277;28;20776;-53
2023/06/24 08:50:00;;;;;;;4.17;3.80;;;;;;;;;;5072505;28;20203;-53
2023/06/24 08:52:30;;;;;;;4.00;3.60;;;;;;;;;;5072127;28;20199;-53
2023/06/24 08:54:58;;;;;;;6.23;5.30;;;;;;;;;;5072172;28;20268;-53
2023/06/24 08:57:26;;;;;;;5.00;4.40;;;;;;;;;;5071943;28;20221;-53
2023/06/24 08:59:53;;;;;;;5.17;3.70;;;;;;;;;;5072086;28;20201;-53
2023/06/24 09:02:19;;;;;;;4.23;3.83;;;;;;;;;;5072114;28;20733;-53
2023/06/24 09:04:45;;;;;;;3.70;3.40;;;;;;;;;;5071907;28;20225;-53
2023/06/24 09:07:11;;;;;;;6.40;4.30;;;;;;;;;;5071841;28;20249;-52
2023/06/24 09:09:44;;;;;;;3.83;3.43;;;;;;;;;;5072018;28;20229;-53
2023/06/24 09:12:11;;;;;;;4.47;4.07;;;;;;;;;;5072014;28;20278;-53
2023/06/24 09:14:40;;;;;;;4.97;3.63;;;;;;;;;;5071802;28;20199;-52
2023/06/24 09:17:06;;;;;;;4.87;4.37;;;;;;;;;;5071364;28;20280;-51
2023/06/24 09:19:36;;;;;;;10.97;4.77;;;;;;;;;;5071697;28;20296;-52
2023/06/24 09:22:02;;;;;;;4.30;3.90;;;;;;;;;;5071323;28;20278;-52
2023/06/24 09:24:30;;;;;;;6.67;3.67;;;;;;;;;;5071460;28;20225;-53
2023/06/24 09:26:59;;;;;;;4.73;3.97;;;;;;;;;;5070949;28;20276;-53
2023/06/24 09:29:27;;;;;;;4.13;3.80;;;;;;;;;;5071285;28;20670;-52
2023/06/24 09:31:59;;;;;;;4.93;3.80;;;;;;;;;;5070964;28;20415;-52
2023/06/24 09:34:26;;;;;;;5.57;4.33;;;;;;;;;;5071479;28;20208;-52
2023/06/24 09:36:52;;;;;;;6.67;4.27;;;;;;;;;;5069279;28;20199;-53
2023/06/24 09:39:18;;;;;;;3.93;3.43;;;;;;;;;;5069478;28;20220;-53
2023/06/24 09:41:49;;;;;;;4.17;3.57;;;;;;;;;;5071465;28;20561;-53
2023/06/24 09:44:16;;;;;;;4.50;3.43;;;;;;;;;;5071760;28;20195;-50
2023/06/24 09:46:43;;;;;;;4.27;3.77;;;;;;;;;;5071035;28;20211;-51
2023/06/24 09:49:11;;;;;;;4.70;3.60;;;;;;;;;;5071720;28;20203;-51
2023/06/24 09:51:38;;;;;;;3.97;3.57;;;;;;;;;;5071605;28;20217;-52
2023/06/24 09:54:05;;;;;;;4.30;3.90;;;;;;;;;;5071693;28;20203;-52
2023/06/24 09:56:35;;;;;;;3.50;3.20;;;;;;;;;;5071462;28;20242;-53
2023/06/24 09:59:03;;;;;;;4.47;4.07;;;;;;;;;;5069195;28;20227;-51
2023/06/24 10:01:29;;;;;;;3.70;3.40;;;;;;;;;;5071325;28;20263;-52
2023/06/24 10:03:55;;;;;;;4.10;3.70;;;;;;;;;;5071085;28;20653;-52
2023/06/24 10:06:24;;;;;;;3.43;3.13;;;;;;;;;;5071308;28;20286;-52
2023/06/24 10:08:50;;;;;;;4.03;3.63;;;;;;;;;;5071219;28;20199;-51
2023/06/24 10:11:16;;;;;;;4.03;3.00;;;;;;;;;;5071188;28;20247;-52
2023/06/24 10:13:42;;;;;;;4.50;3.57;;;;;;;;;;5071262;28;20666;-53
2023/06/24 10:16:08;;;;;;;4.13;3.43;;;;;;;;;;5071449;28;20333;-52
2023/06/24 10:18:35;;;;;;;3.73;3.30;;;;;;;;;;5070875;28;20607;-52
2023/06/24 10:21:01;;;;;;;3.70;3.37;;;;;;;;;;5070954;28;20204;-53
2023/06/24 10:23:31;;;;;;;3.77;3.23;;;;;;;;;;5071261;28;20198;-54
2023/06/24 10:25:57;;;;;;;3.50;3.20;;;;;;;;;;5070999;28;20242;-52
2023/06/24 10:28:24;;;;;;;4.03;3.73;;;;;;;;;;5071080;28;20194;-51
2023/06/24 10:30:55;;;;;;;3.67;3.37;;;;;;;;;;5070842;28;20311;-53
2023/06/24 10:33:21;;;;;;;3.70;3.00;;;;;;;;;;5070995;28;20199;-52
2023/06/24 10:35:47;;;;;;;3.77;2.80;;;;;;;;;;5070795;28;20183;-52
2023/06/24 10:38:13;;;;;;;3.93;3.17;;;;;;;;;;5070978;28;20230;-52
2023/06/24 10:40:40;;;;;;;4.60;3.27;;;;;;;;;;5070729;28;20270;-53
2023/06/24 10:43:25;;;;;;;4.63;3.47;;;;;;;;;;5071166;28;20235;-53
2023/06/24 10:45:51;;;;;;;3.47;2.80;;;;;;;;;;5070739;28;20289;-53
2023/06/24 10:48:21;;;;;;;3.07;2.73;;;;;;;;;;5070778;28;20212;-53
2023/06/24 10:50:47;;;;;;;3.03;2.73;;;;;;;;;;5070584;28;20203;-53
2023/06/24 10:53:14;;;;;;;3.13;2.53;;;;;;;;;;5071404;28;20198;-51
2023/06/24 10:55:42;;;;;;;3.60;2.87;;;;;;;;;;5070378;28;21003;-52
2023/06/24 10:58:09;;;;;;;5.03;3.43;;;;;;;;;;5070443;28;20237;-51
2023/06/24 11:00:35;;;;;;;3.50;3.20;;;;;;;;;;5074546;28;20217;-52
2023/06/24 11:03:08;;;;;;;3.33;3.03;;;;;;;;;;5074232;28;20202;-53
2023/06/24 11:05:34;;;;;;;6.67;6.07;;;;;;;;;;5074581;28;20276;-53
2023/06/24 11:08:00;;;;;;;3.40;3.10;;;;;;;;;;5074429;28;20207;-54
2023/06/24 11:10:26;;;;;;;3.33;3.03;;;;;;;;;;5074531;28;20657;-53
2023/06/24 11:12:53;;;;;;;3.43;3.13;;;;;;;;;;5074131;28;20285;-53
2023/06/24 11:15:19;;;;;;;3.93;3.50;;;;;;;;;;5074594;28;20216;-53
2023/06/24 11:17:45;;;;;;;5.77;4.00;;;;;;;;;;5074278;28;20233;-52
2023/06/24 11:20:12;;;;;;;6.13;3.83;;;;;;;;;;5074448;28;20696;-53
2023/06/24 11:22:40;;;;;;;3.63;3.00;;;;;;;;;;5074626;28;20207;-53
2023/06/24 11:25:06;;;;;;;4.10;3.27;;;;;;;;;;5074199;28;20206;-53
2023/06/24 11:27:32;;;;;;;4.67;3.87;;;;;;;;;;5073998;28;20712;-54
2023/06/24 11:30:02;;;;;;;4.00;3.60;;;;;;;;;;5074555;28;20198;-54
2023/06/24 11:32:35;;;;;;;4.00;3.60;;;;;;;;;;5074314;28;20226;-52
2023/06/24 11:35:01;;;;;;;4.13;3.60;;;;;;;;;;5072262;28;20570;-53
2023/06/24 11:37:31;;;;;;;4.87;3.20;;;;;;;;;;5073829;28;20564;-53
2023/06/24 11:40:04;;;;;;;3.60;3.30;;;;;;;;;;5072863;28;20220;-53
2023/06/24 11:42:30;;;;;;;5.57;4.30;;;;;;;;;;5074166;28;20201;-54
2023/06/24 11:45:01;;;;;;;6.33;3.90;;;;;;;;;;5074688;28;20252;-52
2023/06/24 11:47:27;;;;;;;5.10;3.70;;;;;;;;;;5074181;28;20202;-53
2023/06/24 11:49:55;;;;;;;4.80;3.60;;;;;;;;;;5074356;28;20197;-54
2023/06/24 11:52:28;;;;;;;5.87;4.27;;;;;;;;;;5074235;28;20206;-54
2023/06/24 11:54:54;;;;;;;5.90;3.53;;;;;;;;;;5074073;28;20651;-54
2023/06/24 11:57:20;;;;;;;5.63;4.13;;;;;;;;;;5073895;28;20201;-53
2023/06/24 11:59:52;;;;;;;6.80;3.77;;;;;;;;;;5073690;28;20703;-52
2023/06/24 12:02:20;;;;;;;5.20;4.43;;;;;;;;;;5073337;28;20689;-52
2023/06/24 12:04:46;;;;;;;4.23;3.60;;;;;;;;;;5073607;28;20638;-55
2023/06/24 12:07:12;;;;;;;4.77;3.30;;;;;;;;;;5073805;28;20281;-55
2023/06/24 12:09:38;;;;;;;5.20;4.00;;;;;;;;;;5073230;28;20247;-55
2023/06/24 12:12:06;;;;;;;5.30;4.17;;;;;;;;;;5073494;28;20255;-54
2023/06/24 12:14:32;;;;;;;5.00;4.23;;;;;;;;;;5073529;28;20662;-54
2023/06/24 12:16:58;;;;;;;5.77;3.53;;;;;;;;;;5073412;28;20211;-55
2023/06/24 12:19:28;;;;;;;4.07;3.67;;;;;;;;;;5073406;28;20305;-54
2023/06/24 12:21:56;;;;;;;4.70;3.43;;;;;;;;;;5073408;28;20193;-55
2023/06/24 12:24:22;;;;;;;4.57;3.33;;;;;;;;;;5073526;28;20209;-55
2023/06/24 12:26:49;;;;;;;4.57;3.67;;;;;;;;;;5073076;28;20242;-54
2023/06/24 12:29:17;;;;;;;5.23;4.27;;;;;;;;;;5073322;28;20293;-55
2023/06/24 12:31:43;;;;;;;4.07;3.50;;;;;;;;;;5073072;28;20207;-55
2023/06/24 12:34:09;;;;;;;5.93;3.27;;;;;;;;;;5073073;28;20199;-55
2023/06/24 12:36:37;;;;;;;3.80;3.50;;;;;;;;;;5073004;28;20191;-54
2023/06/24 12:39:03;;;;;;;3.90;3.40;;;;;;;;;;5072650;28;20234;-54
2023/06/24 12:41:29;;;;;;;5.50;3.40;;;;;;;;;;5072600;28;20629;-54
2023/06/24 12:43:55;;;;;;;5.50;4.00;;;;;;;;;;5072730;28;20200;-54
2023/06/24 12:46:21;;;;;;;5.53;3.90;;;;;;;;;;5072558;28;20229;-54
2023/06/24 12:48:48;;;;;;;4.57;3.40;;;;;;;;;;5070952;28;20613;-54
2023/06/24 12:51:14;;;;;;;4.33;3.57;;;;;;;;;;5068926;28;20280;-54
2023/06/24 12:53:41;;;;;;;3.80;3.50;;;;;;;;;;5071916;28;20238;-55
2023/06/24 12:56:08;;;;;;;8.60;6.53;;;;;;;;;;5072045;28;20206;-54
2023/06/24 12:58:34;;;;;;;3.83;3.43;;;;;;;;;;5072039;28;20701;-55
2023/06/24 13:01:00;;;;;;;3.60;3.30;;;;;;;;;;5071987;28;20240;-55
2023/06/24 13:03:26;;;;;;;4.60;3.83;;;;;;;;;;5071817;28;20233;-55
2023/06/24 13:05:53;;;;;;;3.13;2.90;;;;;;;;;;5071681;28;20217;-55
2023/06/24 13:08:19;;;;;;;3.20;2.90;;;;;;;;;;5071846;28;20602;-54
2023/06/24 13:10:46;;;;;;;7.93;3.53;;;;;;;;;;5071642;28;20224;-55
2023/06/24 13:13:13;;;;;;;6.87;3.50;;;;;;;;;;5071483;28;20678;-55
2023/06/24 13:15:39;;;;;;;3.20;2.90;;;;;;;;;;5071454;28;20732;-55
2023/06/24 13:18:05;;;;;;;6.33;2.87;;;;;;;;;;5071398;28;20212;-55
2023/06/24 13:20:31;;;;;;;4.00;3.00;;;;;;;;;;5071890;28;20195;-52
2023/06/24 13:22:57;;;;;;;4.60;3.67;;;;;;;;;;5070875;28;20195;-55
2023/06/24 13:25:23;;;;;;;5.57;3.63;;;;;;;;;;5071614;28;20199;-55
2023/06/24 13:27:51;;;;;;;4.07;3.20;;;;;;;;;;5071560;28;20701;-61
2023/06/24 13:30:17;;;;;;;3.70;3.20;;;;;;;;;;5071715;28;20314;-53
2023/06/24 13:32:46;;;;;;;4.90;3.00;;;;;;;;;;5071558;28;20204;-54
2023/06/24 13:35:12;;;;;;;3.67;3.33;;;;;;;;;;5071426;28;20581;-54
2023/06/24 13:37:38;;;;;;;3.33;2.80;;;;;;;;;;5071653;28;20199;-53
2023/06/24 13:40:05;;;;;;;3.80;3.50;;;;;;;;;;5071365;28;20291;-54
2023/06/24 13:42:31;;;;;;;5.43;3.43;;;;;;;;;;5071401;28;20279;-54
2023/06/24 13:44:58;;;;;;;3.80;3.40;;;;;;;;;;5071359;28;20213;-53
2023/06/24 13:47:24;;;;;;;6.37;3.57;;;;;;;;;;5071171;28;20295;-53
2023/06/24 13:49:50;;;;;;;3.23;2.93;;;;;;;;;;5071116;28;20192;-53
2023/06/24 13:52:16;;;;;;;3.63;2.77;;;;;;;;;;5070995;28;20253;-53
2023/06/24 13:54:43;;;;;;;3.57;2.60;;;;;;;;;;5071084;28;20255;-53
2023/06/24 13:57:09;;;;;;;4.63;3.03;;;;;;;;;;5070943;28;20686;-54
2023/06/24 13:59:34;;;;;;;13.10;3.10;;;;;;;;;;5070944;28;20250;-54
2023/06/24 14:02:02;;;;;;;3.60;2.80;;;;;;;;;;5070609;28;20202;-54
2023/06/24 14:04:28;;;;;;;3.63;3.20;;;;;;;;;;5070147;28;20225;-54
2023/06/24 14:06:54;;;;;;;2.90;2.70;;;;;;;;;;5070602;28;20239;-54
2023/06/24 14:09:20;;;;;;;5.03;2.73;;;;;;;;;;5071084;28;20600;-54
2023/06/24 14:11:46;;;;;;;3.40;3.10;;;;;;;;;;5070797;28;20201;-54
2023/06/24 14:14:12;;;;;;;4.27;2.80;;;;;;;;;;5071059;28;20205;-54
2023/06/24 14:16:38;;;;;;;2.90;2.70;;;;;;;;;;5070687;28;20204;-54
2023/06/24 14:19:05;;;;;;;4.30;3.33;;;;;;;;;;5070657;28;20225;-54
2023/06/24 14:21:31;;;;;;;3.17;2.97;;;;;;;;;;5070709;28;20233;-54
2023/06/24 14:23:57;;;;;;;6.07;2.93;;;;;;;;;;5070741;28;20239;-54
2023/06/24 14:26:23;;;;;;;3.40;3.10;;;;;;;;;;5070578;28;20229;-54
2023/06/24 14:28:49;;;;;;;4.70;3.20;;;;;;;;;;5070563;28;20197;-54
2023/06/24 14:31:15;;;;;;;3.80;3.40;;;;;;;;;;5070656;28;20206;-54
2023/06/24 14:33:41;;;;;;;4.13;3.23;;;;;;;;;;5074217;28;20194;-54
2023/06/24 14:36:09;;;;;;;3.47;3.17;;;;;;;;;;5077310;28;20640;-55